Tiempo atmosférico en la estación meteorológica de Utiel, València/Valencia (761 m.)



Fecha
DESCASC
Temp. máxima en grados centígrados (hora)
DESCASC
Temp. mínima en grados centígrados (hora)
DESCASC
Temp. media en grados centígrados
DESCASC
Racha de viento máxima en m/sg (hora)
DESCASC
Velocidad máxima media en intervalos de 10 minutos(hora)
DESCASC
Precipitaciones diarias en mm
DESCASC
Precipitaciones de 00:00 a 06:00 en mm
DESCASC
Precipitaciones de 06:00 a 12:00 en mm
DESCASC
Precipitaciones de 12:00 a 18:00 en mm
DESCASC
Precipitaciones de 18:00 a 24:00 en mm
DESCASC
22-04-2019 15.7 (14:50) 7.6 (01:00) 11.6 7.5 (06:40) 5.56 (13:00) 0.8 0.8 0 0 0
21-04-2019 10.6 (16:10) 6.9 (05:30) 8.8 10.83 (10:10) 6.39 (10:10) 3.6 0 0 0 3.6
20-04-2019 12.5 (11:10) 9.2 (22:50) 10.8 19.17 (08:00) 11.67 (08:10) 1 0 0.2 0.8 0
19-04-2019 11.2 (15:20) 8.1 (01:00) 9.7 16.11 (22:50) 10 (22:50) 34.2 0.6 14 17.6 2
18-04-2019 11 (12:30) 7.7 (00:00) 9.3 13.89 (17:00) 9.44 (17:00) 23.4 0 0 8.4 15
17-04-2019 18.4 (15:30) 4.4 (00:00) 11.4 11.11 (19:20) 7.78 (19:20) 0 0 0 0 0
16-04-2019 21.3 (15:20) 4.5 (00:00) 12.9 10.83 (17:30) 7.5 (16:20) 0 0 0 0 0
15-04-2019 20.5 (15:40) 8.9 (00:00) 14.7 10.28 (13:50) 6.94 (15:30) 0 0 0 0 0
14-04-2019 24.5 (17:00) 2.4 (00:00) 13.5 11.67 (13:00) 7.5 (18:20) 0 0 0 0 0
13-04-2019 22.5 (17:20) 1.1 (00:00) 11.8 8.89 (19:30) 6.11 (09:10) 0 0 0 0 0
12-04-2019 18.4 (17:10) 4.3 (07:20) 11.3 10.28 (00:50) 7.5 (02:00) 0 0 0 0 0
11-04-2019 18.2 (17:00) 5 (00:00) 11.6 14.72 (09:50) 10.56 (11:10) 0 0 0 0 0
10-04-2019 14.9 (15:50) 3.5 (00:00) 9.2 17.22 (16:50) 12.5 (16:50) 0 0 0 0 0
09-04-2019 13.5 (15:40) 4.4 (00:00) 9 13.89 (15:20) 8.89 (15:20) -- 0 0 -- 0
08-04-2019 17.1 (16:10) 6.7 (00:00) 11.9 14.72 (19:30) 9.44 (19:30) -- -- -- 0 0
07-04-2019 13.2 (17:30) 4 (00:00) 8.6 15.28 (12:00) 10.83 (12:20) -- -- -- -- --
06-04-2019 10.1 (16:30) 2.3 (00:00) 6.2 24.72 (17:10) 11.94 (15:20) -- -- -- -- --
05-04-2019 10.6 (11:20) 2.5 (00:00) 6.6 15.83 (18:10) 9.17 (18:10) -- -- -- -- --
04-04-2019 14.7 (17:10) 1.3 (00:00) 8 10 (00:30) 7.22 (00:30) 0 0 0 0 0
03-04-2019 17 (18:00) 3.7 (07:40) 10.4 14.72 (16:40) 10 (16:40) 0.4 0.2 0.2 0 0
02-04-2019 16.9 (14:50) 6.2 (00:00) 11.5 11.11 (15:10) 7.22 (16:10) 0.4 0 0 0.2 0.2
01-04-2019 12.3 (18:20) 7.9 (00:00) 10.1 7.5 (18:40) 4.72 (17:50) 3.2 2.4 0.6 0.2 0
31-03-2019 8.6 (15:50) 5.2 (00:00) 6.9 6.39 (10:20) 4.44 (10:40) 24.6 0 9 11 4.6
30-03-2019 15.4 (14:30) -0.5 (-00:0) 7.4 10.28 (16:50) 7.78 (16:40) 0 0 0 0 0
29-03-2019 15.3 (14:00) -0.8 (-00:0) 7.3 11.11 (13:00) 7.78 (17:30) 0 0 0 0 0
28-03-2019 17.8 (14:40) -1.1 (-00:0) 8.3 10.28 (16:20) 6.94 (16:00) 0 0 0 0 0
27-03-2019 17.1 (16:10) 0.9 (00:00) 9 10.28 (16:20) 7.22 (17:40) 0 0 0 0 0
26-03-2019 17.1 (14:00) 3.4 (00:00) 10.3 11.11 (15:40) 6.94 (15:40) 0 0 0 0 0
25-03-2019 21.6 (15:20) 3.1 (00:00) 12.4 9.44 (17:20) 6.11 (17:20) 0 0 0 0 0

Gráficas

Temp. máximas Temp. mínimas Temp. medias Precipitaciones Rachas de viento máximas Velocidades máximas media en intervalos de 10 minutos

Datos horarios

Fecha y hora oficial Temperatura (ºC) Velocidad del viento (km/h) Dirección del viento Racha (km/h) Dirección de racha Precipitación (mm) Presión (hPa) Tendencia (hPa) Humedad (%)
2019-04-23 23:00:00 6.2 29 Oeste 45 Oeste 0 916.5 2.7 78
2019-04-23 22:00:00 6.7 21 Oeste 31 Oeste 0 915.8 2.3 78
2019-04-23 21:00:00 6.9 23 Oeste 55 Oeste 0.2 915.2 2 78
2019-04-23 20:00:00 9.2 25 Oeste 49 Oeste 0 913.8 0.9 63
2019-04-23 19:00:00 11.9 30 Oeste 44 Sudoeste 0 913.5 -0.2 58
2019-04-23 18:00:00 11.6 29 Oeste 43 Oeste 0 913.2 -1.2 69
2019-04-23 17:00:00 11.6 24 Sudoeste 35 Sur 0 912.9 -1.1 69
2019-04-23 16:00:00 11.5 10 Sudoeste 28 Sudoeste 0.4 913.7 -0.1 76
2019-04-23 15:00:00 10.5 20 Sudoeste 35 Sudoeste 0.8 914.4 0.8 79
2019-04-23 14:00:00 10.8 16 Sudoeste 28 Sudoeste 0.6 914 0.8 84
2019-04-23 13:00:00 11.4 11 Sudoeste 39 Sudoeste 0.2 913.8 0.9 79
2019-04-23 12:00:00 13.5 27 Oeste 44 Oeste 0 913.6 0.6 67
2019-04-23 11:00:00 12 19 Oeste 34 Oeste 0 913.2 0.2 73
2019-04-23 10:00:00 10.8 18 Oeste 31 Oeste 0 912.9 0.1 77
2019-04-23 09:00:00 8.6 0 Calma 7 Este 0 913 0.3 86
2019-04-23 08:00:00 8.1 5 Este 8 Este 0 913 0 88
2019-04-23 07:00:00 7.8 3 Sur 7 Sudeste 0 912.8 -0.3 90
2019-04-23 06:00:00 7.8 4 Sudeste 9 Sudeste 0 912.7 -0.8 91
2019-04-23 05:00:00 8.1 6 Sudeste 9 Sur 0 913 -1 90
2019-04-23 04:00:00 8.8 5 Sudeste 8 Sudoeste 0 913.1 -1.3 87
2019-04-23 03:00:00 9 9 Sudoeste 11 Sudoeste 0 913.5 -1.1 86
2019-04-23 02:00:00 10 3 Oeste 15 Sudoeste 0 914 -0.8 82
2019-04-23 01:00:00 9.9 7 Oeste 14 Oeste 0 914.4 -0.2 81
2019-04-23 00:00:00 11.4 8 Sudoeste 11 Sur 0 914.6 0.4 75
2019-04-22 23:00:00 12.1 2 Este 7 Nordeste 0 914.8 0.9 73
2019-04-22 22:00:00 12.6 5 Nordeste 13 Noroeste 0 914.6 0.7 69
2019-04-22 21:00:00 12.6 8 Sudoeste 14 Sudoeste 0 914.2 0.3 71
2019-04-22 20:00:00 13 9 Oeste 22 Oeste 0 913.9 -0.2 71
2019-04-22 19:00:00 13.3 17 Oeste 25 Oeste 0 913.9 -0.7 69
2019-04-22 18:00:00 14.3 13 Oeste 22 Oeste 0 913.9 -1.1 64
2019-04-22 17:00:00 14.7 6 Sudoeste 11 Oeste 0 914.1 -1.2 59
2019-04-22 16:00:00 14 4 Sudoeste 10 Sudeste 0 914.6 -1.3 56
2019-04-22 15:00:00 15.4 3 Nordeste 17 Norte 0 915 -1.2 52
2019-04-22 14:00:00 14.7 9 Norte 24 Norte 0 915.3 -0.8 62
2019-04-22 13:00:00 12.3 20 Norte 25 Norte 0 915.9 -0.2 67
2019-04-22 12:00:00 10.4 14 Norte 26 Norte 0 916.2 0.1 75
2019-04-22 11:00:00 10.2 10 Norte 17 Norte 0 916.1 0.1 78
2019-04-22 10:00:00 9.9 9 Norte 14 Norte 0 916.1 0.3 80
2019-04-22 09:00:00 8.9 8 Noroeste 12 Noroeste 0 916.1 -0.1 82
2019-04-22 08:00:00 8.6 7 Noroeste 27 Norte 0 916 -1 81
2019-04-22 07:00:00 8.7 17 Norte 27 Noroeste 0 915.8 -1.7 79
2019-04-22 06:00:00 8.5 7 Noroeste 21 Noroeste 0 916.2 -2.2 82
2019-04-22 05:00:00 8 6 Oeste 17 Norte 0 917 -2.4 89
2019-04-22 04:00:00 8 13 Norte 23 Norte 0 917.5 -2.9 90
2019-04-22 03:00:00 7.8 14 Norte 25 Norte 0 918.4 -2.6 92
2019-04-22 02:00:00 7.6 15 Norte 22 Norte 0 919.4 -2.2 94
2019-04-22 01:00:00 7.6 10 Noroeste 13 Noroeste 0.8 920.4 -0.6 93
2019-04-22 00:00:00 8 5 Norte 8 Oeste 2.2 921 0.4 92
2019-04-21 23:00:00 8.3 6 Sur 10 Sur 1.2 921.6 0.8 90
2019-04-21 22:00:00 8.5 6 Noroeste 15 Norte 0.2 921 0.1 88
2019-04-21 21:00:00 9 12 Norte 16 Norte 0 920.6 -0.5 81
2019-04-21 20:00:00 9.4 3 Norte 10 Nordeste 0 920.8 -0.5 76
2019-04-21 19:00:00 9.7 8 Nordeste 18 Nordeste 0 920.9 -1.1 73
2019-04-21 18:00:00 9.9 10 Nordeste 27 Este 0 921.1 -1 74
2019-04-21 17:00:00 10.4 12 Nordeste 28 Nordeste 0 921.3 -1.4 70
2019-04-21 16:00:00 10.5 5 Nordeste 24 Norte 0 922 -1.6 70
2019-04-21 15:00:00 9.8 12 Norte 22 Nordeste 0 922.1 -1.4 76
2019-04-21 14:00:00 9.6 12 Nordeste 27 Nordeste 0 922.7 -1.2 75
2019-04-21 13:00:00 9 9 Nordeste 23 Nordeste 0 923.6 0.1 81
2019-04-21 12:00:00 9.6 15 Nordeste 33 Nordeste 0 923.5 -0.5 71
2019-04-21 11:00:00 9.7 16 Nordeste 39 Nordeste 0 923.9 -0.4 66
2019-04-21 10:00:00 9.3 23 Nordeste 35 Nordeste 0 923.5 -1.1 70
2019-04-21 09:00:00 7.6 14 Norte 22 Norte 0 924 -1 79
2019-04-21 08:00:00 7 12 Noroeste 18 Noroeste 0 924.3 -0.9 81
2019-04-21 07:00:00 6.9 10 Noroeste 15 Norte 0 924.6 -1.4 82
2019-04-21 06:00:00 6.9 12 Noroeste 18 Noroeste 0 925 -2.1 81
2019-04-21 05:00:00 7.1 14 Noroeste 21 Noroeste 0 925.2 -2.6 81
2019-04-21 04:00:00 7.8 10 Norte 19 Nordeste 0 926 -2.5 76
2019-04-21 03:00:00 8.4 12 Nordeste 30 Nordeste 0 927.1 -1.7 69
2019-04-21 02:00:00 8.5 14 Norte 32 Nordeste 0 927.8 -1.2 65
2019-04-21 01:00:00 9.2 18 Nordeste 32 Nordeste 0 928.5 -0.4 62
2019-04-21 00:00:00 9.4 19 Nordeste 35 Nordeste 0 928.8 0.5 62
2019-04-20 23:00:00 9.4 12 Nordeste 23 Nordeste 0 929 0.9 64
2019-04-20 22:00:00 9.5 13 Nordeste 32 Nordeste 0 928.9 0.3 62
2019-04-20 21:00:00 10.1 21 Nordeste 50 Nordeste 0 928.3 -0.3 60
2019-04-20 20:00:00 10.4 30 Nordeste 55 Nordeste 0 928.1 -1.4 59
2019-04-20 19:00:00 10.7 24 Nordeste 50 Nordeste 0 928.6 -0.7 61
2019-04-20 18:00:00 10.4 25 Nordeste 42 Nordeste 0 928.6 0.1 68
2019-04-20 17:00:00 10.2 22 Nordeste 47 Este 0 929.5 0.8 70
2019-04-20 16:00:00 10.3 21 Este 52 Nordeste 0 929.3 1.4 72
2019-04-20 15:00:00 10.5 24 Este 49 Nordeste 0 928.5 -0.6 71
2019-04-20 14:00:00 10.5 22 Este 61 Nordeste 0.2 928.7 -0.5 68
2019-04-20 13:00:00 11.3 36 Nordeste 62 Nordeste 0.6 927.9 -0.6 63
2019-04-20 12:00:00 11.9 25 Nordeste 52 Este 0.2 929.1 1.2 55
2019-04-20 11:00:00 12.3 28 Este 57 Este 0 929.2 2.8 49
2019-04-20 10:00:00 12.2 18 Este 49 Este 0 928.5 1.5 54
2019-04-20 09:00:00 11.8 24 Nordeste 67 Nordeste 0 927.9 0.1 60
2019-04-20 08:00:00 11.5 38 Nordeste 69 Nordeste 0 926.4 -1.1 59
2019-04-20 07:00:00 10.9 24 Nordeste 44 Nordeste 0 927 -1.1 61
2019-04-20 06:00:00 11.2 19 Este 45 Nordeste 0 927.8 -0.5 57
2019-04-20 05:00:00 10.9 26 Nordeste 52 Nordeste 0 927.5 -2.8 61
2019-04-20 04:00:00 10.7 27 Nordeste 50 Nordeste 0 928.1 -2.9 66
2019-04-20 03:00:00 10.5 24 Nordeste 46 Este 0 928.3 -1.9 70
2019-04-20 02:00:00 10.1 22 Nordeste 52 Nordeste 0 930.3 0 75
2019-04-20 01:00:00 10.3 27 Nordeste 53 Nordeste 0 931 1 79
2019-04-20 00:00:00 10.3 31 Nordeste 56 Nordeste 0 930.2 0.7 84
2019-04-19 23:00:00 10.3 31 Nordeste 58 Nordeste 0.2 930.3 1.3 84
2019-04-19 22:00:00 10.3 23 Nordeste 53 Nordeste 0.2 930 1.7 84
2019-04-19 21:00:00 10.3 18 Nordeste 46 Este 0.6 929.5 1.6 85
2019-04-19 20:00:00 10.7 21 Este 40 Este 0.8 929 1.2 84
2019-04-19 19:00:00 11.1 19 Este 38 Este 0.2 928.3 0.6 82
2019-04-19 18:00:00 11 24 Este 55 Este 0.2 927.9 0.5 84
2019-04-19 17:00:00 11.1 23 Este 56 Este 0 927.8 -0.5 82
2019-04-19 16:00:00 10.8 25 Este 52 Este 0.8 927.7 -1.1 85
2019-04-19 15:00:00 10.8 16 Este 28 Este 1.4 927.4 -1.4 89
2019-04-19 14:00:00 8.7 8 Oeste 17 Oeste 8.4 928.3 0 94
2019-04-19 13:00:00 8.5 6 Noroeste 18 Noroeste 6.8 928.8 0.6 94
2019-04-19 12:00:00 8.7 8 Norte 11 Nordeste 8.2 928.8 0.5 93
2019-04-19 11:00:00 8.9 4 Norte 8 Norte 3.2 928.3 0.4 92
2019-04-19 10:00:00 9.1 5 Norte 11 Este 0.6 928.2 0.9 92
2019-04-19 09:00:00 8.9 6 Sudeste 10 Sudeste 0.6 928.3 1.1 92
2019-04-19 08:00:00 8.9 6 Sudeste 15 Sudeste 0.8 927.9 0.8 93
2019-04-19 07:00:00 9 6 Sudeste 13 Este 0.6 927.3 0.3 94
2019-04-19 06:00:00 9.2 9 Sudeste 13 Sur 0.2 927.2 0.4 94
2019-04-19 05:00:00 8.9 5 Sudoeste 8 Sur 0 927.1 0.1 94
2019-04-19 04:00:00 8.6 5 Este 7 Este 0 927 0.3 93
2019-04-19 03:00:00 8.6 4 Oeste 8 Norte 0 926.8 0.3 93
2019-04-19 02:00:00 8.5 5 Noroeste 9 Noroeste 0 927 0.3 94
2019-04-19 01:00:00 8.2 6 Noroeste 12 Norte 0.4 926.7 0.9 94
2019-04-19 00:00:00 8.2 7 Norte 15 Noroeste 3.2 926.5 1.2 94
2019-04-18 23:00:00 8.2 9 Noroeste 14 Noroeste 0.8 926.7 1.8 94
2019-04-18 22:00:00 8.4 10 Noroeste 21 Oeste 1.4 925.8 0 94
2019-04-18 21:00:00 8.4 9 Noroeste 21 Oeste 2.8 925.3 -0.1 94
2019-04-18 20:00:00 8.2 6 Norte 16 Nordeste 4 924.9 0 93
2019-04-18 19:00:00 8.4 6 Norte 27 Sudoeste 2.8 925.8 1.3 90
2019-04-18 18:00:00 8.4 21 Sudoeste 36 Sudoeste 2.8 925.4 0.2 91
2019-04-18 17:00:00 9.9 34 Sur 50 Sur 4.8 924.9 -1.1 89
2019-04-18 16:00:00 10.9 14 Este 28 Sudeste 0.2 924.5 -0.8 81
2019-04-18 15:00:00 10.1 4 Nordeste 9 Este 0.6 925.2 -1.4 91
2019-04-18 14:00:00 10.1 6 Sudeste 19 Nordeste 0 926 -1.4 85
2019-04-18 13:00:00 10.6 14 Este 24 Este 0 925.3 -1.4 79
2019-04-18 12:00:00 10.7 3 Nordeste 8 Nordeste 0 926.6 0 77
2019-04-18 11:00:00 10 4 Sudeste 13 Sur 0 927.4 0.8 79
2019-04-18 10:00:00 9.8 9 Sudeste 14 Este 0 926.7 0.9 82
2019-04-18 09:00:00 9 7 Sur 18 Sudoeste 0 926.6 -0.7 85
2019-04-18 08:00:00 8.8 10 Sudoeste 19 Norte 0 926.6 -0.8 76
2019-04-18 07:00:00 8 5 Noroeste 12 Norte 0 925.8 -2.1 83
2019-04-18 06:00:00 8.6 6 Norte 14 Norte 0 927.3 -1.2 79
2019-04-18 05:00:00 8 11 Oeste 17 Oeste 0 927.4 -1.5 82
2019-04-18 04:00:00 8.4 7 Norte 18 Noroeste 0 927.9 -1.5 79
2019-04-18 03:00:00 8.8 13 Noroeste 21 Noroeste 0 928.5 -1.6 78
2019-04-18 02:00:00 8.5 9 Nordeste 17 Nordeste 0 928.9 -0.4 79
2019-04-18 01:00:00 8.6 23 Sudeste 32 Sudeste 0 929.4 1.3 82
2019-04-18 00:00:00 9.3 9 Nordeste 22 Sudeste 0 930.1 2.5 74
2019-04-17 23:00:00 9.6 12 Sudeste 18 Este 0 929.3 2 73
2019-04-17 22:00:00 10.1 14 Sudeste 24 Sudeste 0 928.1 1.1 66
2019-04-17 21:00:00 10.6 21 Sudeste 36 Sudeste 0 927.6 0.5 69
2019-04-17 20:00:00 12.5 20 Sudeste 40 Sudeste 0 927.3 -0.3 66
2019-04-17 19:00:00 14.8 24 Sudeste 33 Sudeste 0 927 -1 60
2019-04-17 18:00:00 15.3 25 Sudeste 35 Sudeste 0 927.1 -1.5 58
2019-04-17 17:00:00 17 21 Sudeste 35 Sudeste 0 927.6 -1.5 52
2019-04-17 16:00:00 17.4 19 Este 38 Sudeste 0 928 -1.6 47
2019-04-17 15:00:00 18.2 26 Sudeste 37 Sudeste 0 928.6 -1.7 42
2019-04-17 14:00:00 16.9 21 Sudeste 34 Sudeste 0 929.1 -1.4 50
2019-04-17 13:00:00 15.3 19 Sudeste 33 Este 0 929.6 -1.3 57
2019-04-17 12:00:00 12.7 14 Este 29 Este 0 930.3 -0.4 66
2019-04-17 11:00:00 10.8 18 Este 24 Sudeste 0 930.5 -0.2 73
2019-04-17 10:00:00 9.6 12 Sudeste 17 Sudeste 0 930.9 0.1 79
2019-04-17 09:00:00 7.6 2 Nordeste 12 Norte 0 930.7 0.1 86
2019-04-17 08:00:00 5.9 8 Norte 13 Norte 0 930.7 -0.1 90
2019-04-17 07:00:00 4.5 5 Norte 7 Noroeste 0 930.8 -0.6 91
2019-04-17 06:00:00 5.1 5 Norte 6 Norte 0 930.6 -1.4 88
2019-04-17 05:00:00 6.7 4 Nordeste 9 Este 0 930.8 -1.5 82
2019-04-17 04:00:00 8 4 Este 14 Nordeste 0 931.4 -1 77
2019-04-17 03:00:00 8.9 8 Nordeste 26 Este 0 932 -0.2 78
2019-04-17 02:00:00 8.6 15 Sudeste 26 Sudeste 0 932.3 0.3 81
2019-04-17 01:00:00 8.6 16 Sudeste 24 Sudeste 0 932.4 0.8 82
2019-04-17 00:00:00 9.5 5 Este 10 Sudeste 0 932.2 1.3 75
2019-04-16 23:00:00 10.3 8 Sudeste 18 Sudeste 0 932 1.5 71
2019-04-16 22:00:00 11.3 13 Sudeste 22 Sudeste 0 931.6 1.4 67
2019-04-16 21:00:00 12.6 18 Sudeste 33 Sudeste 0 930.9 0.5 65
2019-04-16 20:00:00 15 23 Sudeste 35 Sudeste 0 930.5 0.3 57
2019-04-16 19:00:00 17.3 23 Sudeste 35 Sudeste 0 930.2 -0.2 49
2019-04-16 18:00:00 18.4 22 Sudeste 39 Sudeste 0 930.4 0 48
2019-04-16 17:00:00 18.9 22 Sudeste 37 Sudeste 0 930.2 -0.8 45
2019-04-16 16:00:00 20.7 21 Sudeste 36 Sudeste 0 930.4 -0.9 33
2019-04-16 15:00:00 21 10 Sur 26 Sudeste 0 930.4 -1.1 24
2019-04-16 14:00:00 20.5 8 Sur 18 Sur 0 931 -0.8 24
2019-04-16 13:00:00 18.9 4 Sudeste 18 Norte 0 931.3 -0.1 30
2019-04-16 12:00:00 17.2 5 Oeste 15 Norte 0 931.5 0.3 36
2019-04-16 11:00:00 15.1 10 Noroeste 25 Norte 0 931.8 1.3 49
2019-04-16 10:00:00 13.2 18 Norte 33 Norte 0 931.4 1.6 58
2019-04-16 09:00:00 10.4 17 Noroeste 21 Noroeste 0 931.2 1.7 75
2019-04-16 08:00:00 5.2 10 Oeste 12 Oeste 0 930.5 1.5 95
2019-04-16 07:00:00 4.8 4 Noroeste 6 Nordeste 0 929.8 0.8 94
2019-04-16 06:00:00 4.8 5 Noroeste 8 Noroeste 0 929.5 0.2 93
2019-04-16 05:00:00 5.6 4 Norte 7 Noroeste 0 929 -0.3 90
2019-04-16 04:00:00 7.7 3 Este 6 Este 0 929 -0.6 91
2019-04-16 03:00:00 8.2 2 Norte 8 Oeste 0 929.3 0.6 89
2019-04-16 02:00:00 8.3 7 Noroeste 19 Noroeste 0 929.3 1.1 88
2019-04-16 01:00:00 9.1 12 Noroeste 18 Noroeste 0 929.6 1.8 86
2019-04-16 00:00:00 9.6 9 Noroeste 15 Noroeste 0 928.7 1.7 83
2019-04-15 23:00:00 10.3 3 Sur 17 Sudeste 0 928.2 1.7 79
2019-04-15 22:00:00 11.5 10 Sur 23 Sudeste 0 927.8 1.5 76
2019-04-15 21:00:00 13.2 19 Sudeste 28 Sudeste 0 927 0.6 70
2019-04-15 20:00:00 15.9 21 Sudeste 28 Sudeste 0 926.5 -0.2 58
2019-04-15 19:00:00 18.1 21 Sudeste 32 Sudeste 0 926.3 -0.6 50
2019-04-15 18:00:00 19.4 22 Sudeste 29 Sudeste 0 926.4 -1.2 43
2019-04-15 17:00:00 19.9 22 Sudeste 32 Sur 0 926.7 -1.3 42
2019-04-15 16:00:00 19.8 21 Sudeste 34 Sudeste 0 926.9 -1.3 43
2019-04-15 15:00:00 19.8 23 Sudeste 35 Sudeste 0 927.6 -1.1 43
2019-04-15 14:00:00 19.7 21 Sudeste 37 Sudeste 0 928 -1.1 45
2019-04-15 13:00:00 19.4 21 Sudeste 33 Sudeste 0 928.2 -1.1 41
2019-04-15 12:00:00 18.4 21 Sudeste 28 Sudeste 0 928.7 -0.4 44
2019-04-15 11:00:00 16.1 4 Este 10 Sudeste 0 929.1 0.3 55
2019-04-15 10:00:00 13.4 4 Norte 10 Noroeste 0 929.3 0.8 68
2019-04-15 09:00:00 11.2 6 Sudeste 21 Sudeste 0 929.1 0.7 78
2019-04-15 08:00:00 9.8 5 Este 7 Este 0 928.8 0.2 78
2019-04-15 07:00:00 8.9 4 Noroeste 7 Noroeste 0 928.5 -0.4 79
2019-04-15 06:00:00 9.8 4 Noroeste 8 Noroeste 0 928.4 -0.6 76
2019-04-15 05:00:00 10.3 5 Norte 6 Noroeste 0 928.6 -0.9 74
2019-04-15 04:00:00 11.2 4 Sudeste 9 Noroeste 0 928.9 -0.9 70
2019-04-15 03:00:00 11.7 5 Noroeste 9 Noroeste 0 929 -0.7 69
2019-04-15 02:00:00 12.9 2 Oeste 10 Noroeste 0 929.5 0.1 62
2019-04-15 01:00:00 13.8 9 Noroeste 12 Norte 0 929.8 0.9 59
2019-04-15 00:00:00 15.1 5 Norte 21 Noroeste 0 929.7 1.6 53
2019-04-14 23:00:00 16.3 6 Nordeste 9 Nordeste 0 929.4 1.8 49
2019-04-14 22:00:00 17.3 6 Oeste 16 Oeste 0 928.9 1.5 45
2019-04-14 21:00:00 19.6 13 Oeste 37 Oeste 0 928.1 0.8 37
2019-04-14 20:00:00 22 22 Oeste 37 Sudoeste 0 927.6 -0.1 31
2019-04-14 19:00:00 23.3 26 Sudoeste 39 Oeste 0 927.4 -0.8 28
2019-04-14 18:00:00 24.1 25 Oeste 37 Oeste 0 927.3 -1.5 26
2019-04-14 17:00:00 24.2 24 Oeste 40 Oeste 0 927.7 -1.5 24
2019-04-14 16:00:00 23.7 23 Oeste 39 Noroeste 0 928.2 -1.5 25
2019-04-14 15:00:00 23.5 16 Oeste 34 Oeste 0 928.8 -1.3 24
2019-04-14 14:00:00 22.4 16 Oeste 34 Oeste 0 929.2 -1.2 23
2019-04-14 13:00:00 20.7 21 Oeste 42 Oeste 0 929.7 -0.7 25
2019-04-14 12:00:00 18.8 3 Sur 15 Sudeste 0 930.1 -0.3 26
2019-04-14 11:00:00 14.9 4 Sudeste 9 Este 0 930.4 0.3 32
2019-04-14 10:00:00 11.2 2 Este 5 Sudeste 0 930.4 0.6 39
2019-04-14 09:00:00 6.6 0 Calma 7 Oeste 0 930.4 0.4 53
2019-04-14 08:00:00 2.5 6 Norte 10 Norte 0 930.1 0.1 67
2019-04-14 07:00:00 2.8 0 Calma 12 Norte 0 929.8 -0.2 63
2019-04-14 06:00:00 3.6 4 Noroeste 10 Noroeste 0 930 -0.2 60
2019-04-14 05:00:00 3.9 4 Noroeste 9 Sudoeste 0 930 -0.6 59
2019-04-14 04:00:00 5 7 Sudoeste 9 Sudoeste 0 930 -0.9 52
2019-04-14 03:00:00 6.9 2 Sudoeste 12 Sudoeste 0 930.2 -0.8 45
2019-04-14 02:00:00 7.6 11 Oeste 19 Sudoeste 0 930.6 -0.4 45
2019-04-14 01:00:00 7.8 7 Norte 16 Norte 0 930.9 0.5 49
2019-04-14 00:00:00 9.4 7 Norte 19 Noroeste 0 931 1.7 43
2019-04-13 23:00:00 11.2 17 Noroeste 23 Noroeste 0 931 2 37
2019-04-13 22:00:00 13.2 14 Noroeste 24 Oeste 0 930.4 1.6 29
2019-04-13 21:00:00 16.6 17 Sudoeste 29 Sudoeste 0 929.3 0.4 15
2019-04-13 20:00:00 19.5 17 Sudoeste 32 Sudoeste 0 929 0.1 12
2019-04-13 19:00:00 21 16 Sudoeste 24 Sudoeste 0 928.8 -0.6 11
2019-04-13 18:00:00 21.8 14 Oeste 23 Oeste 0 928.9 -0.9 11
2019-04-13 17:00:00 22 6 Sur 26 Noroeste 0 928.9 -1.2 8
2019-04-13 16:00:00 21.6 10 Norte 21 Norte 0 929.4 -1.4 9
2019-04-13 15:00:00 20.5 8 Norte 20 Norte 0 929.8 -1.4 9
2019-04-13 14:00:00 18.5 7 Este 22 Norte 0 930.1 -0.9 11
2019-04-13 13:00:00 17.3 12 Noroeste 27 Norte 0 930.8 0.1 15
2019-04-13 12:00:00 16.6 15 Norte 27 Norte 0 931.2 0.6 15
2019-04-13 11:00:00 13.7 15 Norte 23 Norte 0 931 0.7 20
2019-04-13 10:00:00 10.8 19 Noroeste 27 Noroeste 0 930.7 0.9 28
2019-04-13 09:00:00 7.4 21 Noroeste 27 Noroeste 0 930.6 1.2 50
2019-04-13 08:00:00 2.2 8 Norte 16 Noroeste 0 930.3 0.8 73
2019-04-13 07:00:00 1.8 3 Oeste 12 Noroeste 0 929.8 0 76
2019-04-13 06:00:00 2.5 8 Noroeste 13 Noroeste 0 929.4 -0.8 72
2019-04-13 05:00:00 3.8 9 Oeste 12 Sudoeste 0 929.5 -0.9 67
2019-04-13 04:00:00 4.5 6 Noroeste 13 Noroeste 0 929.8 -0.5 67
2019-04-13 03:00:00 4.4 10 Noroeste 15 Noroeste 0 930.2 0.3 71
2019-04-13 02:00:00 5.2 10 Noroeste 14 Noroeste 0 930.4 0.9 68
2019-04-13 01:00:00 7 8 Noroeste 16 Noroeste 0 930.3 1.4 62
2019-04-13 00:00:00 7.7 11 Noroeste 17 Noroeste 0 929.9 1.8 59
2019-04-12 23:00:00 9.1 13 Noroeste 18 Noroeste 0 929.5 1.8 57
2019-04-12 22:00:00 11.5 8 Noroeste 17 Norte 0 928.9 1.4 43
2019-04-12 21:00:00 13.3 13 Norte 22 Norte 0 928.1 0.5 36
2019-04-12 20:00:00 16.6 15 Norte 22 Norte 0 927.7 0 30
2019-04-12 19:00:00 16.3 9 Norte 21 Norte 0 927.5 -0.8 30
2019-04-12 18:00:00 17.9 9 Norte 23 Norte 0 927.6 -1.1 27
2019-04-12 17:00:00 17.8 12 Noroeste 28 Norte 0 927.7 -1.2 26
2019-04-12 16:00:00 17.7 10 Norte 24 Noroeste 0 928.3 -0.7 23
2019-04-12 15:00:00 15.9 9 Oeste 25 Noroeste 0 928.7 -0.6 30
2019-04-12 14:00:00 15.5 11 Noroeste 22 Norte 0 928.9 -0.2 28
2019-04-12 13:00:00 15 8 Norte 23 Noroeste 0 929 0.2 34
2019-04-12 12:00:00 13.7 10 Norte 26 Noroeste 0 929.3 0.5 32
2019-04-12 11:00:00 12.2 21 Norte 36 Norte 0 929.1 0.5 45
2019-04-12 10:00:00 10.4 23 Norte 35 Norte 0 928.8 0.5 52
2019-04-12 09:00:00 7.4 19 Norte 28 Norte 0 928.8 0.7 61
2019-04-12 08:00:00 4.6 15 Noroeste 22 Norte 0 928.6 0.2 69
2019-04-12 07:00:00 4.6 12 Noroeste 29 Noroeste 0 928.3 -0.4 69
2019-04-12 06:00:00 5.2 20 Noroeste 31 Norte 0 928.1 -1.1 67
2019-04-12 05:00:00 5.2 19 Noroeste 34 Norte 0 928.4 -1.2 69
2019-04-12 04:00:00 6 22 Norte 33 Noroeste 0 928.7 -0.9 68
2019-04-12 03:00:00 6.5 16 Noroeste 34 Norte 0 929.2 -0.4 65
2019-04-12 02:00:00 7.3 27 Norte 37 Noroeste 0 929.6 0.2 63
2019-04-12 01:00:00 7.7 25 Norte 37 Norte 0 929.6 0.6 61
2019-04-12 00:00:00 8.3 22 Norte 38 Norte 0 929.6 1.5 59
2019-04-11 23:00:00 9.2 19 Norte 31 Norte 0 929.4 2 54
2019-04-11 22:00:00 9.1 12 Noroeste 17 Norte 0 929 1.8 51
2019-04-11 21:00:00 11.8 14 Norte 27 Norte 0 928.1 1.1 39
2019-04-11 20:00:00 14.1 18 Norte 36 Norte 0 927.4 0.4 31
2019-04-11 19:00:00 16.2 22 Norte 41 Norte 0 927.2 -0.2 27
2019-04-11 18:00:00 17.7 15 Norte 39 Norte 0 927 -1 26
2019-04-11 17:00:00 17.8 19 Norte 34 Norte 0 927 -0.9 25
2019-04-11 16:00:00 17.1 20 Norte 38 Norte 0 927.4 -1 30
2019-04-11 15:00:00 15.7 24 Norte 45 Norte 0 928 -0.5 32
2019-04-11 14:00:00 14.3 27 Norte 46 Noroeste 0 927.9 -0.1 38
2019-04-11 13:00:00 13.1 35 Norte 51 Norte 0 928.4 0.5 42
2019-04-11 12:00:00 11.9 35 Norte 49 Norte 0 928.5 0.6 46
2019-04-11 11:00:00 11 36 Norte 52 Norte 0 928 0.5 49
2019-04-11 10:00:00 9.1 33 Norte 53 Norte 0 927.9 1 55
2019-04-11 09:00:00 7.2 26 Norte 42 Norte 0 927.9 1 63
2019-04-11 08:00:00 5.1 19 Norte 32 Norte 0 927.5 0.5 70
2019-04-11 07:00:00 5.2 24 Norte 34 Norte 0 926.9 0 70
2019-04-11 06:00:00 5.4 24 Norte 35 Norte 0 926.9 -0.4 70
2019-04-11 05:00:00 5.6 25 Norte 38 Norte 0 927 -0.6 70
2019-04-11 04:00:00 5.9 28 Norte 45 Norte 0 926.9 -0.7 69
2019-04-11 03:00:00 6.1 20 Norte 28 Norte 0 927.3 0 71
2019-04-11 02:00:00 6.7 19 Noroeste 30 Noroeste 0 927.6 0.5 72
2019-04-11 01:00:00 5.6 17 Noroeste 24 Noroeste 0 927.6 1 78
2019-04-11 00:00:00 5.6 17 Noroeste 23 Norte 0 927.3 1.8 76
2019-04-10 23:00:00 5.8 13 Norte 25 Norte 0 927.1 2 75
2019-04-10 22:00:00 7.6 23 Norte 35 Norte 0 926.6 2 64
2019-04-10 21:00:00 8 21 Norte 49 Noroeste 0 925.5 0.9 63
2019-04-10 20:00:00 10.5 18 Noroeste 33 Noroeste 0 925.1 0.3 53
2019-04-10 19:00:00 11.9 21 Noroeste 35 Noroeste 0 924.6 0.5 48
2019-04-10 18:00:00 11.2 23 Noroeste 55 Noroeste 0 924.6 0.2 55
2019-04-10 17:00:00 9.6 44 Noroeste 62 Noroeste 0 924.8 -0.1 59
2019-04-10 16:00:00 13 38 Noroeste 59 Norte 0 924.1 -0.8 39
2019-04-10 15:00:00 12.9 26 Noroeste 37 Noroeste 0 924.4 -0.9 38
2019-04-10 14:00:00 11.4 19 Noroeste 53 Noroeste 0 924.9 -0.5 52
2019-04-10 13:00:00 12.4 24 Noroeste 46 Noroeste 0 924.9 -0.7 47
2019-04-10 12:00:00 10.9 30 Noroeste 44 Noroeste 0 925.3 0 53
2019-04-10 11:00:00 9.4 27 Noroeste 41 Noroeste 0 925.4 0.5 66
2019-04-10 10:00:00 8 21 Noroeste 33 Noroeste 0 925.6 0.8 72
2019-04-10 09:00:00 6.6 5 Norte 10 Noroeste 0 925.3 0.7 78
2019-04-10 08:00:00 4.3 7 Noroeste 22 Noroeste 0 924.9 0 82
2019-04-10 07:00:00 4.2 13 Oeste 29 Noroeste 0 924.8 -0.2 82
2019-04-10 06:00:00 3.7 19 Oeste 25 Noroeste 0 924.6 -0.2 84
2019-04-10 05:00:00 3.8 17 Oeste 25 Oeste 0 924.9 -0.3 84
2019-04-10 04:00:00 3.8 7 Oeste 26 Oeste 0 925 -0.5 86
2019-04-10 03:00:00 5.3 20 Oeste 31 Oeste 0 924.8 -0.8 79
2019-04-10 02:00:00 5.6 17 Oeste 24 Oeste 0 925.2 -0.6 79
2019-04-10 01:00:00 4.8 8 Noroeste 21 Oeste 0 925.5 0.3 81
2019-04-10 00:00:00 5.7 14 Noroeste 21 Oeste 0 925.6 0.7 78
2019-04-09 23:00:00 5.3 7 Norte 17 Norte 0 925.8 1.4 77
2019-04-09 22:00:00 6.3 13 Noroeste 39 Noroeste 0 925.2 1.2 70
2019-04-09 21:00:00 7.4 24 Noroeste 40 Oeste 0 924.9 0.4 62
2019-04-09 20:00:00 9.7 31 Noroeste 46 Oeste 0 924.4 -0.5 60
2019-04-09 19:00:00 10.7 24 Oeste 38 Oeste 0 924 -0.4 69
2019-04-09 18:00:00 10 24 Oeste 45 Noroeste 2 924.5 -0.5 73
2019-04-09 17:00:00 8.4 30 Oeste 48 Oeste -- 924.9 -0.9 77
2019-04-09 16:00:00 12.7 23 Oeste 50 Oeste 0 924.4 -1.6 49
2019-04-09 15:00:00 12.3 23 Oeste 35 Oeste 0 925 -1.3 52
2019-04-09 14:00:00 10.3 28 Oeste 41 Oeste 0 925.8 -0.5 58
2019-04-09 13:00:00 10.4 27 Noroeste 42 Noroeste 0 926 -0.2 54
2019-04-09 12:00:00 9.4 31 Oeste 49 Oeste 0 926.3 0.1 60
2019-04-09 11:00:00 8.8 26 Oeste 47 Noroeste 0 926.3 0.4 65
2019-04-09 10:00:00 8.7 26 Noroeste 48 Oeste 0 926.2 0.4 69
2019-04-09 09:00:00 7.4 26 Noroeste 37 Noroeste 0 926.2 0.6 74
2019-04-09 08:00:00 6.3 9 Oeste 33 Noroeste 0 925.9 0.5 80
2019-04-09 07:00:00 6.2 9 Oeste 23 Noroeste 0 925.8 0.4 79
2019-04-09 06:00:00 4.9 4 Este 11 Sudoeste 0 925.6 0.3 83
2019-04-09 05:00:00 5.2 5 Sudoeste 17 Noroeste 0 925.4 -0.1 81
2019-04-09 04:00:00 6 7 Norte 23 Oeste 0 925.4 0 80
2019-04-09 03:00:00 7 18 Oeste 23 Oeste 0 925.3 0.1 82
2019-04-09 02:00:00 7.7 13 Oeste 23 Oeste 0 925.5 0.2 85
2019-04-09 01:00:00 7.7 14 Sudoeste 22 Sudoeste 0 925.4 -0.2 88
2019-04-09 00:00:00 8.8 15 Oeste 26 Oeste 0 925.2 0.4 85
2019-04-08 23:00:00 9.7 17 Sudoeste 38 Oeste 0 925.3 0.6 85
2019-04-08 22:00:00 10.5 14 Oeste 26 Noroeste 0 925.6 1.2 82
2019-04-08 21:00:00 11.2 18 Sudoeste 39 Oeste 0 924.8 0.3 77
2019-04-08 20:00:00 12.5 28 Sudoeste 53 Sudoeste 0 924.7 -0.2 69
2019-04-08 19:00:00 16 24 Oeste 41 Noroeste 0 924.4 -0.6 45
2019-04-08 18:00:00 16.9 27 Oeste 40 Oeste 0 924.5 -1.1 40
2019-04-08 17:00:00 16.4 28 Noroeste 47 Oeste 0 924.9 -1.3 46
2019-04-08 16:00:00 16.6 24 Oeste 41 Oeste 0 925 -1.4 46
2019-04-08 15:00:00 15.7 25 Oeste 39 Oeste 0 925.6 -1.1 55
2019-04-08 14:00:00 14 22 Oeste 39 Oeste 0 926.2 -0.3 62
2019-04-08 13:00:00 12.7 22 Noroeste 37 Oeste 0 926.4 0.2 69
2019-04-08 12:00:00 10.6 21 Oeste 35 Oeste 0 926.7 0.6 79
2019-04-08 11:00:00 10.8 22 Oeste 32 Oeste 0 926.5 0.6 82
2019-04-08 10:00:00 10.3 14 Oeste 24 Oeste 0 926.2 0.2 85
2019-04-08 09:00:00 8.9 10 Oeste 21 Sudoeste 0 926.1 0.3 91
2019-04-08 08:00:00 7.5 12 Oeste 16 Oeste 0 925.9 -0.1 92
2019-04-08 07:00:00 7.1 8 Oeste 16 Oeste 0 926 -0.3 94
2019-04-08 06:00:00 6.8 4 Norte 6 Oeste 0 925.8 -1 93
2019-04-08 05:00:00 7 5 Oeste 10 Oeste 0 926 -1.1 91
2019-04-08 04:00:00 7.3 8 Oeste 17 Oeste 0 926.3 -1.1 84
2019-04-08 03:00:00 7.6 10 Oeste 17 Oeste 0 926.8 -0.5 76
2019-04-08 02:00:00 7.1 8 Oeste 10 Oeste 0 927.1 -0.3 76
2019-04-08 01:00:00 7.6 8 Oeste 16 Noroeste 0 927.4 0.4 68
2019-04-08 00:00:00 8.2 12 Noroeste 28 Noroeste 0 927.3 1.3 64
2019-04-07 23:00:00 9.1 19 Noroeste 29 Oeste 0 927.4 1.8 55
2019-04-07 22:00:00 9.7 20 Oeste 35 Noroeste 0 927 2.4 52
2019-04-07 21:00:00 10.4 23 Oeste 39 Oeste 0 926 1.7 43
2019-04-07 20:00:00 11.1 25 Oeste 41 Oeste 0 925.6 1.4 36
2019-04-07 19:00:00 12.6 26 Oeste 43 Oeste 0 924.6 0.4 37
2019-04-07 18:00:00 12.9 27 Noroeste 45 Noroeste 0 924.3 0 33
2019-04-07 17:00:00 12.7 27 Oeste 42 Noroeste 0 924.2 0.3 38
2019-04-07 16:00:00 11.7 27 Noroeste 37 Noroeste 0 924.2 0.7 45
2019-04-07 15:00:00 10.3 24 Noroeste 42 Oeste 0 924.3 1.4 46
2019-04-07 14:00:00 9.6 26 Noroeste 44 Noroeste 0 923.9 1.3 49
2019-04-07 13:00:00 9.3 28 Noroeste 51 Noroeste 0 923.5 1.7 55
2019-04-07 12:00:00 8.3 37 Noroeste 55 Noroeste 0 922.9 2.1 60
2019-04-07 11:00:00 7.1 28 Noroeste 47 Noroeste 0 922.6 2.4 62
2019-04-07 10:00:00 6.2 25 Noroeste 48 Noroeste 0 921.8 2.2 68
2019-04-07 09:00:00 4.7 27 Noroeste 41 Noroeste 0 920.8 1.8 82
2019-04-07 08:00:00 4.2 23 Noroeste 38 Noroeste 0 920.2 0.9 81
2019-04-07 07:00:00 4.2 23 Noroeste 47 Noroeste 0 919.6 0.6 76
2019-04-07 06:00:00 4.7 13 Noroeste 30 Noroeste 0 919 0 78
2019-04-07 05:00:00 4.7 15 Oeste 40 Oeste 0 919.3 0.4 81
2019-04-07 04:00:00 5 15 Oeste 28 Oeste 0 919 -0.2 79
2019-04-07 03:00:00 5 14 Oeste 26 Oeste 0 919 0 79
2019-04-07 02:00:00 5.1 15 Oeste 32 Oeste 0 918.9 0.3 81
2019-04-07 01:00:00 5.1 15 Oeste 24 Oeste 0 919.2 1 82
2019-04-07 00:00:00 5 18 Oeste 40 Oeste 0 919 1.3 81
2019-04-06 23:00:00 5.1 26 Oeste 35 Oeste 0 918.6 1.5 81
2019-04-06 22:00:00 5.8 21 Oeste 33 Oeste 0 918.2 1.4 77
2019-04-06 21:00:00 6.2 12 Sudoeste 28 Sudoeste 0 917.7 0.8 74
2019-04-06 20:00:00 7 19 Oeste 41 Oeste 0 917.1 0.3 72
2019-04-06 19:00:00 7.3 30 Oeste 42 Oeste 0 916.8 -0.2 70
2019-04-06 18:00:00 5.9 28 Oeste 89 Oeste 0.2 916.9 -0.1 74
2019-04-06 17:00:00 9.2 32 Oeste 49 Sudoeste 0 916.8 -0.5 68
2019-04-06 16:00:00 8.3 27 Oeste 66 Sudoeste 0 917 -0.5 71
2019-04-06 15:00:00 8.9 26 Sudoeste 53 Oeste 0 917 -0.5 67
2019-04-06 14:00:00 8 32 Oeste 46 Oeste 0 917.3 -0.4 76
2019-04-06 13:00:00 7.4 28 Oeste 44 Noroeste 0 917.5 0.1 67
2019-04-06 12:00:00 6.9 30 Oeste 46 Oeste 0 917.5 0.5 69
2019-04-06 11:00:00 5.1 16 Oeste 30 Noroeste 0 917.7 1.4 82
2019-04-06 10:00:00 3.9 23 Oeste 48 Oeste 0 917.4 2.1 86
2019-04-06 09:00:00 4.6 15 Oeste 34 Oeste 0 917 2.2 82
2019-04-06 08:00:00 3.6 20 Oeste 32 Oeste 0 916.3 1.5 78
2019-04-06 07:00:00 3.5 14 Oeste 26 Noroeste 0 915.3 0.6 82
2019-04-06 06:00:00 3.6 12 Oeste 37 Oeste 0 914.8 -0.4 84
2019-04-06 05:00:00 4 18 Oeste 42 Noroeste 0 914.8 -1 83
2019-04-06 04:00:00 3.6 27 Noroeste 49 Noroeste 0 914.7 -0.5 83
2019-04-06 03:00:00 2.4 14 Oeste 26 Oeste 0 915.2 0.2 87
2019-04-06 02:00:00 2.6 12 Oeste 30 Oeste 0 915.8 0.9 85
2019-04-06 01:00:00 2.7 23 Oeste 32 Oeste 0 915.2 0.6 85
2019-04-06 00:00:00 2.9 20 Oeste 37 Oeste 0 915 1.4 84
2019-04-05 23:00:00 4.1 21 Noroeste 42 Oeste 0 914.9 1.6 76
2019-04-05 22:00:00 4.6 25 Noroeste 39 Oeste 0 914.6 2.5 80
2019-04-05 21:00:00 4.2 27 Oeste 47 Oeste 0 913.6 0.2 83
2019-04-05 20:00:00 6.1 21 Sudoeste 38 Oeste 0 913.3 -0.5 82
2019-04-05 19:00:00 6.5 3 Este 57 Oeste 0 912.1 -2.1 84
2019-04-05 18:00:00 7.5 23 Sudoeste 35 Sudoeste 0 913.4 -1.6 76
2019-04-05 17:00:00 7.6 18 Sudoeste 27 Sudoeste 0 913.8 -0.8 74
2019-04-05 16:00:00 7.5 12 Sur 23 Sudoeste 0 914.2 -0.6 80
2019-04-05 15:00:00 6.5 16 Sudoeste 40 Oeste 0 915 -0.3 83
2019-04-05 14:00:00 9.3 12 Sudoeste 35 Oeste 0 914.6 -0.4 66
2019-04-05 13:00:00 9.2 13 Sudoeste 25 Oeste 0 914.8 -0.4 58
2019-04-05 12:00:00 9.1 19 Sudoeste 31 Oeste 0 915.3 0 59
2019-04-05 11:00:00 10.1 17 Sudoeste 32 Oeste 0 915 -0.3 55
2019-04-05 10:00:00 8.3 21 Oeste 30 Oeste 0 915.2 0.2 67
2019-04-05 09:00:00 6.4 15 Sudoeste 24 Sudoeste 0 915.3 0.2 74
2019-04-05 08:00:00 5.8 16 Sudoeste 23 Sudoeste 0 915.3 0.1 74
2019-04-05 07:00:00 6 15 Sudoeste 23 Sudoeste 0 915 -0.6 72
2019-04-05 06:00:00 5.4 10 Sudoeste 18 Sudoeste 0 915.1 -0.7 85
2019-04-05 05:00:00 3.4 0 Calma 6 Noroeste 0 915.2 -0.8 92
2019-04-05 04:00:00 2.6 5 Oeste 6 Noroeste 0 915.6 -0.5 91
2019-04-05 03:00:00 3.4 4 Noroeste 7 Noroeste 0 915.8 -0.4 88
2019-04-05 02:00:00 3.8 3 Noroeste 9 Norte 0 916 -0.4 86
2019-04-05 01:00:00 4.3 6 Noroeste 9 Norte 0 916.1 0.2 82
2019-04-05 00:00:00 5.6 2 Noroeste 8 Sudoeste 0 916.2 0.6 75
2019-04-04 23:00:00 6.8 4 Sudeste 21 Sur 0 916.4 0.9 74
2019-04-04 22:00:00 7.3 6 Oeste 8 Oeste 0 915.9 0.6 54
2019-04-04 21:00:00 10.5 6 Sudoeste 19 Sudoeste 0 915.6 0.1 34
2019-04-04 20:00:00 13 13 Sudoeste 23 Sudoeste 0 915.5 -0.3 24
2019-04-04 19:00:00 14.2 14 Sudoeste 23 Sudoeste 0 915.3 -1 18
2019-04-04 18:00:00 14.5 12 Sudoeste 28 Oeste 0 915.5 -1.5 14
2019-04-04 17:00:00 14.5 11 Sudoeste 27 Oeste 0 915.8 -1.5 16
2019-04-04 16:00:00 14.3 12 Oeste 23 Sudoeste 0 916.3 -1.5 20
2019-04-04 15:00:00 13.2 13 Sudoeste 27 Noroeste 0 917 -1.1 19
2019-04-04 14:00:00 12 13 Oeste 26 Sudoeste 0 917.3 -0.7 21
2019-04-04 13:00:00 11.2 5 Sudeste 17 Sudeste 0 917.8 0.1 24
2019-04-04 12:00:00 10.1 5 Oeste 18 Noroeste 0 918.1 0.6 32
2019-04-04 11:00:00 8.6 6 Norte 13 Noroeste 0 918 1.1 37
2019-04-04 10:00:00 5.9 9 Norte 15 Norte 0 917.7 1.2 63
2019-04-04 09:00:00 2.7 4 Noroeste 9 Norte 0 917.5 1.2 83
2019-04-04 08:00:00 1.3 8 Noroeste 12 Noroeste 0 916.9 0.9 83
2019-04-04 07:00:00 3.1 10 Noroeste 17 Noroeste 0 916.5 0.4 80
2019-04-04 06:00:00 4.4 13 Norte 18 Noroeste 0 916.3 -0.1 76
2019-04-04 05:00:00 4.6 14 Noroeste 18 Noroeste 0 916 -0.7 76
2019-04-04 04:00:00 4.5 11 Noroeste 15 Noroeste 0 916.1 -0.9 76
2019-04-04 03:00:00 4.6 12 Noroeste 24 Norte 0 916.4 -0.1 75
2019-04-04 02:00:00 5.4 17 Norte 27 Norte 0 916.7 0 72
2019-04-04 01:00:00 6.1 19 Norte 36 Norte 0 917 1.1 70
2019-04-04 00:00:00 8 12 Noroeste 16 Noroeste 0 916.5 1.8 71
2019-04-03 23:00:00 8.8 12 Noroeste 20 Noroeste 0 916.7 2.4 64
2019-04-03 22:00:00 9 17 Norte 45 Norte 0 915.9 1.4 63
2019-04-03 21:00:00 12.4 22 Noroeste 31 Noroeste 0 914.7 -0.3 48
2019-04-03 20:00:00 14.4 14 Oeste 29 Noroeste 0 914.3 -1.3 39
2019-04-03 19:00:00 15.5 27 Oeste 49 Oeste 0 914.5 -1.9 34
2019-04-03 18:00:00 17 31 Oeste 49 Oeste 0 915 -2.4 28
2019-04-03 17:00:00 16.4 36 Oeste 53 Oeste 0 915.6 -2.6 32
2019-04-03 16:00:00 16.5 35 Oeste 50 Sudoeste 0 916.4 -2.9 34
2019-04-03 15:00:00 15.9 33 Oeste 44 Oeste 0 917.4 -3 41
2019-04-03 14:00:00 15.1 31 Oeste 42 Oeste 0 918.2 -3 52
2019-04-03 13:00:00 14.6 24 Oeste 40 Oeste 0 919.3 -2.4 61
2019-04-03 12:00:00 13.5 16 Oeste 29 Oeste 0 920.4 -1.7 66
2019-04-03 11:00:00 11.1 15 Sudoeste 22 Sudoeste 0 921.2 -1.1 74
2019-04-03 10:00:00 8.9 3 Sudeste 6 Nordeste 0.2 921.7 -0.8 82
2019-04-03 09:00:00 5.5 4 Sudeste 10 Sudeste 0 922.1 -0.7 94
2019-04-03 08:00:00 4 5 Sur 11 Sudoeste 0 922.3 -1.3 94
2019-04-03 07:00:00 4.1 10 Sudoeste 12 Sudoeste 0 922.5 -1.7 94
2019-04-03 06:00:00 4.3 3 Norte 11 Oeste 0 922.8 -2.1 92
2019-04-03 05:00:00 4.8 4 Norte 10 Oeste 0 923.6 -2 92
2019-04-03 04:00:00 4.8 4 Sudoeste 9 Noroeste 0 924.2 -1.9 93
2019-04-03 03:00:00 5.2 5 Noroeste 10 Oeste 0 924.9 -1.4 93
2019-04-03 02:00:00 5.8 4 Norte 7 Norte 0.2 925.6 -0.7 89
2019-04-03 01:00:00 6.9 2 Este 10 Oeste 0 926.1 -0.7 87
2019-04-03 00:00:00 7.9 5 Sudoeste 11 Sudoeste 0 926.3 0.2 83
2019-04-02 23:00:00 9.8 4 Noroeste 10 Noroeste 0 926.3 0.4 72
2019-04-02 22:00:00 10.8 5 Noroeste 14 Norte 0 926.8 1.1 67
2019-04-02 21:00:00 11.8 10 Norte 18 Norte 0 926.1 0.1 74
2019-04-02 20:00:00 13.5 8 Sudeste 15 Sur 0.2 925.9 -0.3 69
2019-04-02 19:00:00 13.9 12 Sur 27 Sur 0 925.7 -1 65
2019-04-02 18:00:00 14.7 14 Sur 27 Sur 0 926 -0.9 64
2019-04-02 17:00:00 15.6 17 Norte 35 Noroeste 0.2 926.2 -1.3 54
2019-04-02 16:00:00 13.7 19 Noroeste 40 Noroeste 0 926.7 -1.5 62
2019-04-02 15:00:00 15.6 16 Oeste 29 Noroeste 0 926.9 -1.8 58
2019-04-02 14:00:00 15.4 9 Sudoeste 22 Noroeste 0 927.5 -1 60
2019-04-02 13:00:00 15.2 11 Sudoeste 22 Oeste 0 928.2 -0.4 62
2019-04-02 12:00:00 13.2 6 Noroeste 18 Oeste 0 928.7 0.3 66
2019-04-02 11:00:00 12.3 12 Oeste 24 Noroeste 0 928.5 0.6 71
2019-04-02 10:00:00 10.3 9 Oeste 12 Oeste 0 928.6 0.8 85
2019-04-02 09:00:00 8.2 4 Norte 16 Noroeste 0 928.4 0.3 91
2019-04-02 08:00:00 7.4 12 Oeste 17 Noroeste 0 927.9 -0.2 90
2019-04-02 07:00:00 7.9 13 Noroeste 22 Noroeste 0 927.8 -0.8 91
2019-04-02 06:00:00 6.9 13 Noroeste 17 Noroeste 0 928.1 -0.7 95
2019-04-02 05:00:00 6.7 4 Oeste 8 Sudoeste 0 928.1 -1 95
2019-04-02 04:00:00 6.8 4 Oeste 8 Sudoeste 0 928.6 -0.8 95
2019-04-02 03:00:00 6.7 6 Oeste 8 Noroeste 0 928.8 -0.5 94
2019-04-02 02:00:00 7.8 2 Nordeste 7 Norte 0 929.1 0 93
2019-04-02 01:00:00 7.9 5 Norte 6 Norte 0 929.4 0.5 93
2019-04-02 00:00:00 8.2 0 Calma 9 Sur 0 929.3 1.1 92
2019-04-01 23:00:00 8.2 8 Sudeste 11 Sudeste 0 929.1 1.5 92
2019-04-01 22:00:00 8.7 7 Sudeste 13 Sudeste 0 928.9 1.5 90
2019-04-01 21:00:00 9.4 10 Sudeste 18 Sudeste 0 928.2 1 89
2019-04-01 20:00:00 9.9 14 Sudeste 19 Sudeste 0 927.6 0.2 87
2019-04-01 19:00:00 11.2 14 Sudeste 27 Sudeste 0 927.4 -0.1 83
2019-04-01 18:00:00 11.8 17 Sudeste 22 Sudeste 0 927.2 -0.7 82
2019-04-01 17:00:00 11.1 10 Sur 17 Sur 0 927.4 -0.9 81
2019-04-01 16:00:00 10.8 11 Sur 17 Sudeste 0 927.5 -0.8 83
2019-04-01 15:00:00 10.2 12 Sudeste 17 Sudeste 0 927.9 -0.3 89
2019-04-01 14:00:00 9.5 12 Sudeste 21 Sudeste 0.2 928.3 0.6 88
2019-04-01 13:00:00 9.1 14 Sudeste 21 Sudeste 0 928.3 1.3 90
2019-04-01 12:00:00 8.9 10 Sudeste 18 Este 0 928.2 1.7 91
2019-04-01 11:00:00 8.8 13 Sudeste 23 Sudeste 0 927.7 1.6 90
2019-04-01 10:00:00 8.9 4 Sur 11 Este 0.2 927 1.2 90
2019-04-01 09:00:00 8.6 5 Este 10 Este 0 926.5 0.9 90
2019-04-01 08:00:00 8.3 4 Nordeste 9 Este 0.2 926.1 0.4 93
2019-04-01 07:00:00 8.2 4 Norte 9 Norte 0.2 925.8 -0.1 93
2019-04-01 06:00:00 8 6 Norte 11 Noroeste 0.2 925.6 -0.5 93
2019-04-01 05:00:00 8 7 Noroeste 9 Noroeste 0.4 925.7 -0.4 93
2019-04-01 04:00:00 8 6 Norte 11 Noroeste 0.2 925.9 -0.5 93
2019-04-01 03:00:00 8.1 4 Noroeste 7 Norte 0.6 926.1 -0.2 92
2019-04-01 02:00:00 8 4 Noroeste 14 Este 0.4 926.1 -0.2 92
2019-04-01 01:00:00 7.9 3 Nordeste 8 Noroeste 0.6 926.4 0.5 91
2019-04-01 00:00:00 8 5 Oeste 7 Oeste 0.6 926.3 0.8 92
2019-03-31 23:00:00 8 5 Noroeste 9 Este 0.4 926.3 1 91
2019-03-31 22:00:00 8.2 6 Este 13 Este 0.2 925.9 0.6 87
2019-03-31 21:00:00 8.3 5 Este 16 Este 0.8 925.5 0 86
2019-03-31 20:00:00 8.4 10 Este 20 Este 1 925.3 -0.2 85
2019-03-31 19:00:00 8.5 8 Este 20 Este 1.6 925.3 -0.4 86
2019-03-31 18:00:00 8.5 8 Nordeste 14 Este 1.8 925.5 -0.7 86
2019-03-31 17:00:00 8.4 5 Este 13 Nordeste 1.8 925.5 -1.2 86
2019-03-31 16:00:00 8.6 8 Nordeste 14 Este 1.4 925.7 -1.5 86
2019-03-31 15:00:00 8.3 8 Este 13 Este 1.8 926.2 -1.2 86
2019-03-31 14:00:00 8 7 Norte 13 Norte 2.2 926.7 -1.1 88
2019-03-31 13:00:00 7.8 4 Norte 18 Nordeste 2 927.2 -0.5 89
2019-03-31 12:00:00 7.1 10 Norte 20 Norte 2.2 927.4 -0.5 91
2019-03-31 11:00:00 5.8 16 Noroeste 23 Norte 1.8 927.8 -0.2 92
2019-03-31 10:00:00 5.5 13 Norte 18 Norte 1.6 927.7 -0.5 88
2019-03-31 09:00:00 5.7 10 Norte 14 Norte 3.2 927.9 -0.8 90
2019-03-31 08:00:00 6.4 7 Norte 15 Este 0.2 928 -1.2 86
2019-03-31 07:00:00 6.4 5 Este 9 Nordeste 0 928.2 -1.6 86
2019-03-31 06:00:00 6.3 6 Norte 10 Sudeste 0 928.7 -1.3 88
2019-03-31 05:00:00 6.6 8 Sudeste 18 Sudeste 0 929.2 -1.3 88
2019-03-31 03:00:00 5.9 4 Sur 10 Sur 0 930 -1.3 85
2019-03-31 01:00:00 6.1 8 Sudoeste 15 Sur 0 930.5 -1.5 80
2019-03-31 00:00:00 5.3 12 Noroeste 16 Noroeste 0 930.1 -2 78
2019-03-30 23:00:00 7 4 Sudeste 13 Sur 0 931.3 -0.3 75
2019-03-30 22:00:00 6.9 5 Oeste 11 Este 0 932 0.5 68
2019-03-30 21:00:00 7.7 5 Este 19 Sudeste 0 932.1 1.5 66
2019-03-30 20:00:00 9.2 13 Este 32 Sudeste 0 931.6 1 61
2019-03-30 19:00:00 10.8 18 Sudeste 29 Este 0 931.5 0.8 57
2019-03-30 18:00:00 12.8 19 Sudeste 35 Sudeste 0 930.6 -1 50
2019-03-30 17:00:00 14.3 27 Sudeste 37 Sudeste 0 930.6 -1.8 48
2019-03-30 16:00:00 15.2 21 Sudeste 36 Sudeste 0 930.7 -2.6 43
2019-03-30 15:00:00 15 23 Sudeste 37 Sudeste 0 931.6 -2.4 41
2019-03-30 14:00:00 15.1 21 Sudeste 36 Sudeste 0 932.4 -2.1 40
2019-03-30 13:00:00 13.9 17 Sudeste 32 Sudeste 0 933.3 -1.4 41
2019-03-30 12:00:00 13.3 12 Sudeste 27 Sudeste 0 934 -0.9 41
2019-03-30 11:00:00 11.5 16 Sudeste 31 Sudeste 0 934.5 -0.3 49
2019-03-30 10:00:00 9.9 11 Sudeste 22 Sudeste 0 934.7 0.3 55
2019-03-30 09:00:00 7.1 2 Norte -- -- 0 934.9 0.4 71
2019-03-30 08:00:00 2.7 5 Oeste 8 Noroeste 0 934.8 0 89
2019-03-30 07:00:00 1.6 5 Noroeste 12 Noroeste 0 934.4 -0.9 91
2019-03-30 06:00:00 0.7 9 Norte 10 Norte 0 934.5 -1.3 87
2019-03-30 05:00:00 1.5 6 Noroeste 13 Noroeste 0 934.8 -1.5 91
2019-03-30 04:00:00 -0.1 6 Norte 8 Norte 0 935.3 -1.4 90
2019-03-30 03:00:00 -0.2 7 Norte 9 Norte 0 935.8 -1.3 86
2019-03-30 02:00:00 0.6 2 Noroeste 10 Noroeste 0 936.3 -0.9 86
2019-03-30 01:00:00 0.4 7 Norte 10 Norte 0 936.7 -0.4 77
2019-03-30 00:00:00 1.6 6 Norte 9 Norte 0 937.1 0.2 69
2019-03-29 23:00:00 2.2 5 Noroeste 7 Noroeste 0 937.2 1.1 64
2019-03-29 22:00:00 5.7 3 Sudeste 12 Sudeste 0 937.1 1.2 59
2019-03-29 21:00:00 6.7 10 Sudeste 20 Este 0 936.9 1.1 55
2019-03-29 20:00:00 8.9 14 Este 28 Sudeste 0 936.1 0.5 44
2019-03-29 19:00:00 10.2 22 Sudeste 34 Sudeste 0 935.9 0.1 39
2019-03-29 18:00:00 11.6 20 Sudeste 39 Sudeste 0 935.8 -0.4 34
2019-03-29 17:00:00 12.7 18 Este 33 Este 0 935.6 -1.3 34
2019-03-29 16:00:00 14.1 23 Sudeste 38 Sudeste 0 935.8 -1.6 34
2019-03-29 15:00:00 14.3 23 Sudeste 39 Sudeste 0 936.2 -1.6 35
2019-03-29 14:00:00 15 24 Sudeste 40 Sudeste 0 936.9 -1.4 34
2019-03-29 13:00:00 15 26 Sudeste 40 Sudeste 0 937.4 -0.9 31
2019-03-29 12:00:00 14.3 24 Sudeste 37 Sudeste 0 937.8 -0.4 27
2019-03-29 11:00:00 12.8 17 Este 34 Sudeste 0 938.3 0.1 24
2019-03-29 10:00:00 12 12 Sudeste 20 Sudeste 0 938.3 0.4 28
2019-03-29 09:00:00 8.3 3 Norte 9 Noroeste 0 938.2 0.4 34
2019-03-29 08:00:00 0.8 7 Norte 11 Noroeste 0 938.2 0.4 61
2019-03-29 07:00:00 0 7 Noroeste 12 Noroeste 0 937.9 -0.3 66
2019-03-29 06:00:00 0.5 9 Norte 15 Noroeste 0 937.8 -0.6 65
2019-03-29 05:00:00 -0.7 10 Norte 14 Norte 0 937.8 -0.8 72
2019-03-29 04:00:00 -0.2 5 Norte 13 Noroeste 0 938.2 -0.4 71
2019-03-29 03:00:00 0 9 Noroeste 11 Noroeste 0 938.4 -0.2 72
2019-03-29 02:00:00 2 2 Noroeste 10 Noroeste 0 938.6 0 71
2019-03-29 01:00:00 2.6 8 Noroeste 12 Noroeste 0 938.6 0.1 64
2019-03-29 00:00:00 4 8 Noroeste 13 Noroeste 0 938.6 0.2 60
2019-03-28 23:00:00 5 9 Noroeste 13 Noroeste 0 938.6 0.9 53
2019-03-28 22:00:00 6.3 3 Sudeste 8 Oeste 0 938.5 1.3 45
2019-03-28 21:00:00 8.4 4 Este 12 Este 0 938.4 1.7 40
2019-03-28 20:00:00 9.9 10 Sudeste 30 Sudeste 0 937.7 1.2 32
2019-03-28 19:00:00 12.4 21 Sudeste 33 Sudeste 0 937.2 0.7 27
2019-03-28 18:00:00 14.7 22 Sudeste 32 Sudeste 0 936.7 -0.1 25
2019-03-28 17:00:00 16.1 24 Sudeste 37 Sudeste 0 936.5 -1.1 22
2019-03-28 16:00:00 17.2 25 Sudeste 36 Sudeste 0 936.5 -1.6 18
2019-03-28 15:00:00 17.2 22 Sudeste 37 Sudeste 0 936.8 -1.9 15
2019-03-28 14:00:00 16.8 16 Sudeste 35 Sudeste 0 937.6 -1.4 15
2019-03-28 13:00:00 15.9 12 Sudeste 28 Sudeste 0 938.1 -1.1 15
2019-03-28 12:00:00 15.2 8 Sur 27 Sudeste 0 938.7 -0.4 13
2019-03-28 11:00:00 13.8 13 Sudeste 21 Sudeste 0 939 0.1 14
2019-03-28 10:00:00 12.8 2 Este 6 Norte 0 939.2 0.5 15
2019-03-28 09:00:00 6.9 5 Norte 12 Norte 0 939.1 0.8 31
2019-03-28 08:00:00 0.7 8 Noroeste 14 Noroeste 0 938.9 0.7 44
2019-03-28 07:00:00 -0.5 6 Noroeste 13 Noroeste 0 938.7 0.5 46
2019-03-28 06:00:00 -0.2 9 Noroeste 13 Noroeste 0 938.3 0.1 46
2019-03-28 05:00:00 -0.7 9 Noroeste 12 Noroeste 0 938.2 -0.1 48
2019-03-28 04:00:00 -0.5 10 Noroeste 12 Noroeste 0 938.2 -0.2 53
2019-03-28 03:00:00 -0.2 7 Norte 10 Noroeste 0 938.2 -0.1 60
2019-03-28 02:00:00 -0.2 8 Norte 12 Noroeste 0 938.3 0.3 61
2019-03-28 01:00:00 1.2 9 Noroeste 13 Noroeste 0 938.4 0.9 61
2019-03-28 00:00:00 1.3 9 Noroeste 12 Norte 0 938.3 1.2 54
2019-03-27 23:00:00 3.6 4 Nordeste 14 Noroeste 0 938 2 49
2019-03-27 22:00:00 5.1 9 Norte 11 Norte 0 937.5 2.3 42
2019-03-27 21:00:00 7.6 2 Nordeste 15 Sudeste 0 937.1 2.5 35
2019-03-27 20:00:00 9.6 15 Sudeste 27 Sudeste 0 936 1.5 30
2019-03-27 19:00:00 11.9 23 Sudeste 32 Sudeste 0 935.2 0.7 25
2019-03-27 18:00:00 13.9 23 Sudeste 35 Sudeste 0 934.6 0 25
2019-03-27 17:00:00 15.7 26 Sudeste 37 Sudeste 0 934.5 -0.6 19
2019-03-27 16:00:00 16.6 19 Sudeste 35 Sudeste 0 934.5 -1.1 17
2019-03-27 15:00:00 16.7 19 Sudeste 32 Sudeste 0 934.6 -1.2 16
2019-03-27 14:00:00 16 13 Este 30 Este 0 935.1 -0.9 15
2019-03-27 13:00:00 15 13 Este 36 Este 0 935.6 -0.3 13
2019-03-27 12:00:00 14.5 14 Sudeste 27 Sudeste 0 935.8 0.1 18
2019-03-27 11:00:00 13.1 9 Este 21 Sudeste 0 936 0.3 28
2019-03-27 10:00:00 11.6 3 Sudeste 15 Noroeste 0 935.9 0.7 34
2019-03-27 09:00:00 7.1 13 Noroeste 18 Noroeste 0 935.7 0.6 66
2019-03-27 08:00:00 3.8 14 Noroeste 19 Noroeste 0 935.7 0.7 81
2019-03-27 07:00:00 1.8 13 Noroeste 17 Noroeste 0 935.2 0 89
2019-03-27 06:00:00 1.2 10 Norte 14 Norte 0 935.1 -0.3 92
2019-03-27 05:00:00 1.5 9 Noroeste 13 Noroeste 0 935 -0.6 89
2019-03-27 04:00:00 1.8 7 Norte 9 Norte 0 935.2 -0.5 84
2019-03-27 03:00:00 3.7 8 Norte 9 Norte 0 935.4 -0.3 81
2019-03-27 02:00:00 5.8 2 Norte 13 Sudeste 0 935.6 0.3 77
2019-03-27 01:00:00 6.9 12 Sudeste 20 Sudeste 0 935.7 1 72
2019-03-27 00:00:00 7.3 13 Sudeste 22 Sudeste 0 935.7 1.7 71
2019-03-26 23:00:00 7.7 13 Este 27 Sudeste 0 935.3 2.3 70
2019-03-26 22:00:00 7.5 18 Sudeste 27 Sudeste 0 934.7 2.8 73
2019-03-26 21:00:00 8 10 Sudeste 26 Sudeste 0 934 2.5 68
2019-03-26 20:00:00 9.6 16 Sudeste 27 Sudeste 0 933 1.6 50
2019-03-26 19:00:00 12.1 19 Sudeste 31 Sudeste 0 931.9 0.6 38
2019-03-26 18:00:00 13.9 23 Sudeste 32 Sudeste 0 931.5 0 33
2019-03-26 17:00:00 15.5 20 Sudeste 35 Sudeste 0 931.4 -0.5 32
2019-03-26 16:00:00 15.9 22 Este 40 Sudeste 0 931.3 -1.1 32
2019-03-26 15:00:00 16.4 19 Este 36 Este 0 931.5 -1.4 27
2019-03-26 14:00:00 17.1 19 Sudeste 33 Sudeste 0 931.9 -1.2 24
2019-03-26 13:00:00 15.6 19 Sudeste 35 Sudeste 0 932.4 -0.5 27
2019-03-26 12:00:00 14.8 17 Sudeste 32 Sudeste 0 932.9 0.3 29
2019-03-26 11:00:00 13.8 22 Sudeste 32 Sudeste 0 933.1 0.8 29
2019-03-26 10:00:00 12.9 11 Este 23 Este 0 932.9 1.2 32
2019-03-26 09:00:00 10.4 5 Norte 12 Noroeste 0 932.6 1.5 41
2019-03-26 08:00:00 4.8 12 Noroeste 15 Noroeste 0 932.3 1.6 62
2019-03-26 07:00:00 3.9 12 Noroeste 16 Noroeste 0 931.7 0.9 62
2019-03-26 06:00:00 4.2 9 Noroeste 19 Noroeste 0 931.1 0.1 60
2019-03-26 05:00:00 4.7 15 Noroeste 20 Noroeste 0 930.7 -0.4 57
2019-03-26 04:00:00 5.1 14 Noroeste 17 Noroeste 0 930.8 -0.3 55
2019-03-26 03:00:00 5.5 13 Noroeste 15 Noroeste 0 931 -0.3 54
2019-03-26 02:00:00 6.2 11 Noroeste 18 Noroeste 0 931.1 -0.1 52
2019-03-26 01:00:00 6.6 14 Noroeste 17 Noroeste 0 931.1 0.1 52
2019-03-26 00:00:00 6.9 13 Noroeste 16 Noroeste 0 931.3 0.5 52
2019-03-25 23:00:00 7.7 10 Noroeste 13 Noroeste 0 931.2 1.1 47
2019-03-25 22:00:00 9 10 Norte 14 Noroeste 0 931 1.3 43
2019-03-25 21:00:00 10.6 10 Noroeste 14 Noroeste 0 930.8 1.4 36
2019-03-25 20:00:00 14.2 9 Este 24 Sudeste 0 930.1 0.5 29
2019-03-25 19:00:00 17.1 21 Sudeste 30 Sudeste 0 929.7 -0.5 23
2019-03-25 18:00:00 19.2 20 Sudeste 34 Sur 0 929.4 -1.2 20
2019-03-25 17:00:00 20.3 17 Sudeste 30 Sudeste 0 929.6 -2 17
2019-03-25 16:00:00 20.9 12 Sudeste 31 Sudeste 0 930.2 -2.2 17
2019-03-25 15:00:00 21.3 11 Sur 26 Sudeste 0 930.6 -2.4 16
2019-03-25 14:00:00 20.8 11 Sur 26 Sudeste 0 931.6 -1.9 17
2019-03-25 13:00:00 20.2 12 Sudeste 30 Este 0 932.4 -1.3 18
2019-03-25 12:00:00 19.5 16 Sudeste 27 Sudeste 0 933 -0.5 19
2019-03-25 11:00:00 18.5 10 Sudeste 20 Sudeste 0 933.5 -0.2 21
2019-03-25 10:00:00 16.6 4 Norte 13 Noroeste 0 933.7 0.3 27
2019-03-25 09:00:00 11.6 10 Noroeste 15 Noroeste 0 933.5 0.1 34
2019-03-25 08:00:00 5.8 8 Noroeste 19 Noroeste 0 933.7 0.1 48
2019-03-25 07:00:00 5.1 12 Noroeste 23 Noroeste 0 933.4 -0.6 48
2019-03-25 06:00:00 5.2 14 Noroeste 20 Noroeste 0 933.4 -0.9 48
2019-03-25 05:00:00 4.2 12 Noroeste 18 Noroeste 0 933.6 -1 50
2019-03-25 04:00:00 3.6 10 Noroeste 16 Noroeste 0 934 -0.8 51
2019-03-25 03:00:00 3.3 12 Noroeste 16 Noroeste 0 934.3 -0.9 52
2019-03-25 02:00:00 4.4 10 Noroeste 13 Noroeste 0 934.6 -0.9 48
2019-03-25 01:00:00 4.7 6 Noroeste 12 Noroeste 0 934.8 -0.6 45
2019-03-25 00:00:00 5.7 11 Noroeste 13 Noroeste 0 935.2 0.1 43